createdAt,value
2023-03-05T00:08:20.979Z,43.08
2023-03-05T00:10:48.318Z,44.32
2023-03-05T00:13:35.273Z,44.20
2023-03-05T00:16:02.491Z,44.41
2023-03-05T00:18:29.355Z,42.98
2023-03-05T00:20:55.931Z,41.96
2023-03-05T00:23:22.768Z,41.56
2023-03-05T00:25:50.218Z,41.53
2023-03-05T00:28:17.738Z,41.11
2023-03-05T00:30:47.529Z,42.18
2023-03-05T00:33:16.519Z,42.14
2023-03-05T00:35:45.444Z,43.71
2023-03-05T00:38:12.433Z,43.01
2023-03-05T00:40:40.004Z,42.82
2023-03-05T00:43:09.835Z,42.43
2023-03-05T00:45:36.786Z,42.24
2023-03-05T00:48:04.742Z,42.01
2023-03-05T00:50:32.367Z,42.15
2023-03-05T00:53:02.020Z,41.79
2023-03-05T00:55:31.531Z,41.84
2023-03-05T00:57:58.993Z,42.11
2023-03-05T01:00:26.601Z,41.88
2023-03-05T01:02:53.522Z,42.24
2023-03-05T01:05:25.223Z,42.13
2023-03-05T01:07:52.097Z,40.89
2023-03-05T01:10:21.523Z,40.29
2023-03-05T01:15:44.643Z,40.96
2023-03-05T01:18:15.465Z,41.13
2023-03-05T01:20:42.449Z,41.00
2023-03-05T01:23:17.464Z,41.11
2023-03-05T01:25:51.354Z,41.79
2023-03-05T01:28:20.404Z,43.09
2023-03-05T01:30:47.864Z,42.23
2023-03-05T01:33:17.649Z,42.46
2023-03-05T01:35:45.171Z,45.24
2023-03-05T01:38:12.456Z,45.91
2023-03-05T01:40:39.523Z,43.86
2023-03-05T01:43:06.675Z,44.50
2023-03-05T01:45:34.595Z,43.95
2023-03-05T01:48:01.716Z,42.85
2023-03-05T01:50:29.639Z,44.58
2023-03-05T01:52:56.635Z,44.06
2023-03-05T01:55:23.577Z,43.66
2023-03-05T01:57:50.620Z,42.50
2023-03-05T02:00:20.300Z,41.58
2023-03-05T02:02:48.922Z,40.81
2023-03-05T02:05:18.010Z,41.74
2023-03-05T02:07:45.725Z,41.46
2023-03-05T02:10:12.752Z,41.86
2023-03-05T02:12:39.730Z,40.86
2023-03-05T02:15:08.615Z,44.55
2023-03-05T02:17:36.662Z,44.52
2023-03-05T02:20:04.552Z,44.10
2023-03-05T02:22:34.079Z,42.58
2023-03-05T02:25:01.169Z,41.46
2023-03-05T02:27:28.361Z,41.58
2023-03-05T02:29:55.412Z,41.04
2023-03-05T02:32:22.379Z,42.63
2023-03-05T02:34:50.513Z,44.57
2023-03-05T02:37:17.591Z,45.88
2023-03-05T02:39:51.788Z,47.20
2023-03-05T02:42:22.473Z,47.89
2023-03-05T02:44:49.539Z,48.53
2023-03-05T02:47:16.535Z,50.02
2023-03-05T02:49:43.611Z,49.68
2023-03-05T02:52:14.839Z,51.23
2023-03-05T02:54:41.982Z,51.45
2023-03-05T02:57:08.880Z,50.77
2023-03-05T02:59:35.930Z,50.42
2023-03-05T03:02:10.098Z,49.37
2023-03-05T03:04:36.997Z,48.80
2023-03-05T03:07:04.490Z,50.30
2023-03-05T03:09:32.145Z,51.65
2023-03-05T03:11:59.203Z,52.54
2023-03-05T03:14:29.072Z,53.40
2023-03-05T03:16:56.378Z,52.71
2023-03-05T03:19:23.314Z,52.44
2023-03-05T03:21:50.530Z,52.52
2023-03-05T03:24:19.248Z,53.21
2023-03-05T03:26:49.058Z,53.08
2023-03-05T03:29:20.066Z,53.42
2023-03-05T03:31:47.868Z,54.06
2023-03-05T03:34:16.242Z,54.05
2023-03-05T03:36:43.206Z,54.04
2023-03-05T03:39:10.256Z,55.03
2023-03-05T03:41:44.458Z,53.07
2023-03-05T03:44:11.826Z,53.87
2023-03-05T03:46:38.893Z,54.71
2023-03-05T03:49:05.615Z,55.71
2023-03-05T03:51:32.650Z,56.42
2023-03-05T03:53:59.746Z,56.97
2023-03-05T03:56:27.236Z,57.53
2023-03-05T03:58:54.116Z,57.77
2023-03-05T04:01:23.161Z,57.61
2023-03-05T04:03:50.330Z,57.75
2023-03-05T04:06:16.911Z,57.84
2023-03-05T04:08:43.929Z,57.67
2023-03-05T04:11:10.992Z,56.17
2023-03-05T04:16:33.841Z,56.39
2023-03-05T04:19:03.468Z,55.74
2023-03-05T04:21:30.445Z,55.23
2023-03-05T04:23:57.386Z,55.07
2023-03-05T04:26:24.325Z,54.40
2023-03-05T04:28:51.318Z,56.53
2023-03-05T04:31:19.750Z,53.53
2023-03-05T04:33:47.722Z,51.01
2023-03-05T04:36:17.297Z,50.13
2023-03-05T04:38:44.332Z,48.81
2023-03-05T04:41:11.214Z,47.99
2023-03-05T04:43:41.062Z,47.67
2023-03-05T04:46:11.051Z,51.64
2023-03-05T04:48:37.984Z,52.28
2023-03-05T04:51:07.394Z,50.61
2023-03-05T04:53:37.016Z,49.46
2023-03-05T04:56:07.317Z,48.07
2023-03-05T04:58:41.058Z,48.34
2023-03-05T05:01:08.773Z,47.43
2023-03-05T05:03:38.641Z,46.86
2023-03-05T05:06:08.298Z,47.91
2023-03-05T05:08:38.058Z,47.42
2023-03-05T05:11:05.167Z,47.83
2023-03-05T05:13:35.688Z,47.42
2023-03-05T05:16:02.694Z,47.03
2023-03-05T05:18:29.741Z,46.98
2023-03-05T05:20:58.465Z,46.07
2023-03-05T05:23:27.072Z,48.27
2023-03-05T05:25:54.053Z,48.33
2023-03-05T05:28:24.337Z,47.35
2023-03-05T05:30:51.935Z,47.25
2023-03-05T05:33:19.090Z,46.84
2023-03-05T05:35:47.618Z,46.59
2023-03-05T05:38:14.618Z,46.96
2023-03-05T05:40:43.825Z,47.10
2023-03-05T05:43:10.699Z,46.37
2023-03-05T05:45:37.694Z,46.34
2023-03-05T05:48:04.677Z,46.99
2023-03-05T05:50:31.633Z,46.81
2023-03-05T05:52:58.735Z,48.37
2023-03-05T05:55:26.236Z,48.31
2023-03-05T05:57:53.095Z,47.83
2023-03-05T06:00:20.020Z,47.74
2023-03-05T06:02:47.003Z,46.66
2023-03-05T06:05:14.554Z,47.04
2023-03-05T06:07:41.497Z,46.73
2023-03-05T06:10:11.037Z,47.73
2023-03-05T06:12:40.984Z,49.49
2023-03-05T06:15:07.488Z,48.80
2023-03-05T06:17:34.409Z,48.42
2023-03-05T06:20:01.360Z,48.30
2023-03-05T06:22:28.966Z,49.43
2023-03-05T06:24:55.872Z,50.14
2023-03-05T06:27:22.847Z,51.23
2023-03-05T06:29:51.592Z,52.10
2023-03-05T06:32:21.148Z,53.08
2023-03-05T06:34:54.032Z,55.38
2023-03-05T06:37:20.806Z,56.34
2023-03-05T06:39:47.695Z,55.31
2023-03-05T06:42:14.935Z,56.59
2023-03-05T06:44:45.941Z,57.55
2023-03-05T06:47:14.825Z,55.82
2023-03-05T06:49:43.180Z,56.57
2023-03-05T06:52:10.014Z,55.53
2023-03-05T06:54:36.857Z,57.32
2023-03-05T06:57:10.340Z,58.02
2023-03-05T06:59:37.242Z,58.17
2023-03-05T07:02:04.192Z,57.54
2023-03-05T07:04:31.723Z,57.46
2023-03-05T07:06:59.268Z,56.11
2023-03-05T07:09:26.704Z,55.70
2023-03-05T07:11:54.223Z,56.03
2023-03-05T07:14:24.253Z,55.18
2023-03-05T07:16:52.056Z,55.03
2023-03-05T07:22:12.534Z,55.18
2023-03-05T07:24:41.253Z,54.10
2023-03-05T07:27:18.202Z,53.04
2023-03-05T07:33:04.046Z,51.88
2023-03-05T07:35:31.578Z,50.20
2023-03-05T07:44:10.599Z,48.05
2023-03-05T07:46:57.113Z,47.19
2023-03-05T07:52:30.716Z,48.17
2023-03-05T07:54:58.737Z,48.07
2023-03-05T07:57:29.676Z,47.46
2023-03-05T08:00:05.891Z,46.70
2023-03-05T08:05:25.590Z,47.14
2023-03-05T08:07:53.033Z,45.80
2023-03-05T08:10:19.963Z,46.57
2023-03-05T08:12:46.599Z,47.41
2023-03-05T08:15:13.458Z,47.30
2023-03-05T08:17:42.275Z,46.08
2023-03-05T08:20:09.649Z,45.94
2023-03-05T08:22:39.204Z,46.16
2023-03-05T08:25:13.128Z,48.30
2023-03-05T08:27:43.087Z,47.20
2023-03-05T08:30:09.701Z,48.16
2023-03-05T08:32:37.788Z,49.27
2023-03-05T08:35:09.542Z,52.60
2023-03-05T08:37:36.728Z,52.64
2023-03-05T08:40:05.210Z,49.94
2023-03-05T08:42:34.209Z,48.34
2023-03-05T08:45:00.726Z,47.50
2023-03-05T08:47:28.706Z,46.68
2023-03-05T08:50:02.730Z,48.17
2023-03-05T08:52:29.696Z,46.38
2023-03-05T08:54:58.455Z,45.95
2023-03-05T08:57:28.992Z,44.93
2023-03-05T08:59:55.974Z,45.31
2023-03-05T09:02:23.501Z,45.60
2023-03-05T09:04:50.111Z,45.41
2023-03-05T09:07:17.011Z,44.81
2023-03-05T09:09:43.872Z,45.57
2023-03-05T09:38:09.273Z,47.85
2023-03-05T09:40:53.522Z,46.67
2023-03-05T09:52:22.900Z,47.07
2023-03-05T09:58:05.899Z,45.28
2023-03-05T10:00:36.018Z,44.40
2023-03-05T10:03:06.185Z,45.27
2023-03-05T10:05:34.822Z,44.87
2023-03-05T10:08:01.630Z,44.91
2023-03-05T10:10:31.238Z,43.80
2023-03-05T10:12:58.278Z,43.63
2023-03-05T10:15:26.105Z,44.24
2023-03-05T10:17:54.684Z,44.90
2023-03-05T10:20:21.820Z,45.51
2023-03-05T10:22:48.823Z,46.71
2023-03-05T10:25:17.445Z,45.61
2023-03-05T10:27:48.144Z,44.32
2023-03-05T10:30:15.961Z,44.09
2023-03-05T10:32:46.926Z,43.85
2023-03-05T10:35:14.954Z,43.24
2023-03-05T10:40:22.324Z,42.00
2023-03-05T10:42:49.279Z,41.31
2023-03-05T10:45:20.192Z,40.54
2023-03-05T10:47:47.144Z,41.84
2023-03-05T10:50:14.310Z,41.90
2023-03-05T10:52:41.892Z,41.55
2023-03-05T10:55:10.432Z,44.54
2023-03-05T10:57:45.106Z,44.46
2023-03-05T11:00:12.378Z,43.59
2023-03-05T11:02:39.842Z,45.15
2023-03-05T11:05:09.911Z,46.32
2023-03-05T11:07:38.815Z,45.94
2023-03-05T11:10:11.858Z,45.01
2023-03-05T11:12:42.313Z,46.49
2023-03-05T11:18:10.936Z,46.30
2023-03-05T11:20:38.290Z,47.04
2023-03-05T11:23:06.455Z,46.02
2023-03-05T11:25:35.861Z,47.77
2023-03-05T11:28:03.632Z,47.06
2023-03-05T11:30:31.948Z,46.92
2023-03-05T11:32:59.600Z,47.36
2023-03-05T11:35:27.070Z,47.78
2023-03-05T11:40:52.212Z,47.16
2023-03-05T11:43:18.929Z,47.67
2023-03-05T11:45:45.880Z,46.69
2023-03-05T11:48:14.824Z,46.83
2023-03-05T11:50:41.685Z,45.99
2023-03-05T11:56:02.273Z,44.88
2023-03-05T11:58:51.014Z,47.82
2023-03-05T12:01:22.998Z,46.70
2023-03-05T12:07:10.549Z,47.11
2023-03-05T12:12:22.803Z,48.32
2023-03-05T12:14:52.804Z,47.18
2023-03-05T12:17:23.241Z,45.52
2023-03-05T12:19:51.903Z,45.49
2023-03-05T16:00:42.116Z,38.84
2023-03-05T16:03:12.342Z,38.95
2023-03-05T16:05:41.350Z,39.90
2023-03-05T16:08:07.834Z,39.89
2023-03-05T16:10:34.664Z,39.55
2023-03-05T16:13:01.515Z,40.50
2023-03-05T16:15:28.365Z,40.62
2023-03-05T16:17:55.429Z,39.79
2023-03-05T16:20:25.110Z,39.88
2023-03-05T16:22:52.332Z,39.82
2023-03-05T16:28:53.936Z,41.07
2023-03-05T16:31:25.078Z,42.38
2023-03-05T16:33:52.161Z,41.40
2023-03-05T16:36:27.613Z,40.88
2023-03-05T16:38:54.200Z,40.63
2023-03-05T16:41:28.046Z,41.88
2023-03-05T16:43:55.125Z,41.60
2023-03-05T16:46:26.452Z,42.10
2023-03-05T16:48:53.410Z,41.45
2023-03-05T16:51:23.510Z,41.94
2023-03-05T22:05:06.650Z,55.66
2023-03-05T22:10:41.693Z,56.20
2023-03-05T22:29:03.234Z,56.38
2023-03-05T22:42:59.764Z,55.17
2023-03-05T22:45:26.770Z,57.61
2023-03-05T23:12:17.003Z,56.41
2023-03-05T23:27:47.908Z,56.59
2023-03-05T23:30:31.725Z,54.84
2023-03-05T23:36:15.048Z,52.09
2023-03-05T23:51:02.347Z,52.00
2023-03-05T23:53:29.437Z,53.65
